sensor_id;sensor_type;location;lat;lon;timestamp;temperature;humidity
33865;DHT22;20159;51.072;13.526;2023-05-10T00:00:34;14.40;55.50
33865;DHT22;20159;51.072;13.526;2023-05-10T00:02:59;14.30;55.50
33865;DHT22;20159;51.072;13.526;2023-05-10T00:05:25;14.30;55.70
33865;DHT22;20159;51.072;13.526;2023-05-10T00:07:50;14.20;55.80
33865;DHT22;20159;51.072;13.526;2023-05-10T00:10:16;14.20;55.90
33865;DHT22;20159;51.072;13.526;2023-05-10T00:12:42;14.10;56.10
33865;DHT22;20159;51.072;13.526;2023-05-10T00:15:08;14.10;56.20
33865;DHT22;20159;51.072;13.526;2023-05-10T00:17:33;14.00;56.40
33865;DHT22;20159;51.072;13.526;2023-05-10T00:19:59;14.00;56.50
33865;DHT22;20159;51.072;13.526;2023-05-10T00:22:25;14.00;56.50
33865;DHT22;20159;51.072;13.526;2023-05-10T00:24:51;13.90;57.20
33865;DHT22;20159;51.072;13.526;2023-05-10T00:27:16;13.90;56.90
33865;DHT22;20159;51.072;13.526;2023-05-10T00:29:42;13.80;57.10
33865;DHT22;20159;51.072;13.526;2023-05-10T00:32:07;13.80;57.10
33865;DHT22;20159;51.072;13.526;2023-05-10T00:34:33;13.80;57.30
33865;DHT22;20159;51.072;13.526;2023-05-10T00:36:58;13.70;57.40
33865;DHT22;20159;51.072;13.526;2023-05-10T00:39:24;16.30;59.00
33865;DHT22;20159;51.072;13.526;2023-05-10T00:41:49;13.60;57.60
33865;DHT22;20159;51.072;13.526;2023-05-10T00:44:15;13.60;57.90
33865;DHT22;20159;51.072;13.526;2023-05-10T00:46:41;13.60;58.00
33865;DHT22;20159;51.072;13.526;2023-05-10T00:49:07;13.50;58.20
33865;DHT22;20159;51.072;13.526;2023-05-10T00:51:32;13.50;58.30
33865;DHT22;20159;51.072;13.526;2023-05-10T00:53:58;13.50;58.50
33865;DHT22;20159;51.072;13.526;2023-05-10T00:56:24;13.50;58.60
33865;DHT22;20159;51.072;13.526;2023-05-10T00:58:50;13.40;58.80
33865;DHT22;20159;51.072;13.526;2023-05-10T01:01:16;13.40;58.90
33865;DHT22;20159;51.072;13.526;2023-05-10T01:03:41;13.40;59.10
33865;DHT22;20159;51.072;13.526;2023-05-10T01:06:07;13.30;59.30
33865;DHT22;20159;51.072;13.526;2023-05-10T01:08:33;13.30;59.30
33865;DHT22;20159;51.072;13.526;2023-05-10T01:10:59;13.20;59.40
33865;DHT22;20159;51.072;13.526;2023-05-10T01:13:35;13.20;59.70
33865;DHT22;20159;51.072;13.526;2023-05-10T01:16:02;13.10;60.30
33865;DHT22;20159;51.072;13.526;2023-05-10T01:18:35;13.00;59.90
33865;DHT22;20159;51.072;13.526;2023-05-10T01:21:23;13.00;60.40
33865;DHT22;20159;51.072;13.526;2023-05-10T01:35:23;12.60;62.00
33865;DHT22;20159;51.072;13.526;2023-05-10T01:38:07;12.50;61.90
33865;DHT22;20159;51.072;13.526;2023-05-10T01:40:42;12.40;62.60
33865;DHT22;20159;51.072;13.526;2023-05-10T01:43:16;12.70;62.50
33865;DHT22;20159;51.072;13.526;2023-05-10T01:46:04;12.20;61.40
33865;DHT22;20159;51.072;13.526;2023-05-10T01:48:40;12.10;62.30
33865;DHT22;20159;51.072;13.526;2023-05-10T01:51:13;12.00;62.10
33865;DHT22;20159;51.072;13.526;2023-05-10T01:53:40;11.90;62.60
33865;DHT22;20159;51.072;13.526;2023-05-10T01:56:07;11.80;63.10
33865;DHT22;20159;51.072;13.526;2023-05-10T01:58:36;11.70;63.70
33865;DHT22;20159;51.072;13.526;2023-05-10T02:01:05;11.60;64.40
33865;DHT22;20159;51.072;13.526;2023-05-10T02:03:34;11.50;64.50
33865;DHT22;20159;51.072;13.526;2023-05-10T02:06:01;11.40;65.20
33865;DHT22;20159;51.072;13.526;2023-05-10T02:08:28;11.30;65.40
33865;DHT22;20159;51.072;13.526;2023-05-10T02:10:55;11.30;65.60
33865;DHT22;20159;51.072;13.526;2023-05-10T02:13:23;11.20;66.20
33865;DHT22;20159;51.072;13.526;2023-05-10T02:15:50;11.20;66.60
33865;DHT22;20159;51.072;13.526;2023-05-10T02:18:17;11.10;66.90
33865;DHT22;20159;51.072;13.526;2023-05-10T02:20:45;11.00;67.40
33865;DHT22;20159;51.072;13.526;2023-05-10T02:23:12;11.00;67.60
33865;DHT22;20159;51.072;13.526;2023-05-10T02:25:39;10.90;68.10
33865;DHT22;20159;51.072;13.526;2023-05-10T02:28:06;10.90;68.50
33865;DHT22;20159;51.072;13.526;2023-05-10T02:30:33;10.80;69.00
33865;DHT22;20159;51.072;13.526;2023-05-10T02:33:00;10.80;69.20
33865;DHT22;20159;51.072;13.526;2023-05-10T02:35:27;10.70;69.60
33865;DHT22;20159;51.072;13.526;2023-05-10T02:37:53;10.70;70.00
33865;DHT22;20159;51.072;13.526;2023-05-10T02:40:19;10.70;70.30
33865;DHT22;20159;51.072;13.526;2023-05-10T02:42:47;10.70;70.70
33865;DHT22;20159;51.072;13.526;2023-05-10T02:45:18;10.70;71.00
33865;DHT22;20159;51.072;13.526;2023-05-10T02:47:44;10.70;71.60
33865;DHT22;20159;51.072;13.526;2023-05-10T02:50:10;10.80;71.30
33865;DHT22;20159;51.072;13.526;2023-05-10T02:52:44;10.80;71.30
33865;DHT22;20159;51.072;13.526;2023-05-10T02:55:13;10.90;71.70
33865;DHT22;20159;51.072;13.526;2023-05-10T02:57:50;10.90;71.30
33865;DHT22;20159;51.072;13.526;2023-05-10T03:00:17;11.00;72.00
33865;DHT22;20159;51.072;13.526;2023-05-10T03:02:42;11.10;71.30
33865;DHT22;20159;51.072;13.526;2023-05-10T03:05:08;11.10;71.30
33865;DHT22;20159;51.072;13.526;2023-05-10T03:07:33;11.10;71.20
33865;DHT22;20159;51.072;13.526;2023-05-10T03:10:00;11.10;71.30
33865;DHT22;20159;51.072;13.526;2023-05-10T03:15:47;11.20;71.70
33865;DHT22;20159;51.072;13.526;2023-05-10T03:18:23;11.50;71.80
33865;DHT22;20159;51.072;13.526;2023-05-10T03:20:50;11.20;71.50
33865;DHT22;20159;51.072;13.526;2023-05-10T03:23:44;11.20;71.20
33865;DHT22;20159;51.072;13.526;2023-05-10T03:26:15;11.20;71.90
33865;DHT22;20159;51.072;13.526;2023-05-10T03:28:42;11.20;71.30
33865;DHT22;20159;51.072;13.526;2023-05-10T03:31:08;11.20;71.10
33865;DHT22;20159;51.072;13.526;2023-05-10T03:33:34;11.20;71.10
33865;DHT22;20159;51.072;13.526;2023-05-10T03:36:00;11.20;71.20
33865;DHT22;20159;51.072;13.526;2023-05-10T03:38:25;11.20;71.50
33865;DHT22;20159;51.072;13.526;2023-05-10T03:40:51;11.20;71.30
33865;DHT22;20159;51.072;13.526;2023-05-10T03:43:16;11.20;71.40
33865;DHT22;20159;51.072;13.526;2023-05-10T03:45:42;11.10;71.70
33865;DHT22;20159;51.072;13.526;2023-05-10T03:48:07;11.00;71.90
33865;DHT22;20159;51.072;13.526;2023-05-10T03:50:33;11.00;72.00
33865;DHT22;20159;51.072;13.526;2023-05-10T03:52:58;11.00;72.30
33865;DHT22;20159;51.072;13.526;2023-05-10T03:55:24;11.00;72.50
33865;DHT22;20159;51.072;13.526;2023-05-10T03:57:50;10.90;72.50
33865;DHT22;20159;51.072;13.526;2023-05-10T04:00:15;10.90;72.90
33865;DHT22;20159;51.072;13.526;2023-05-10T04:02:41;10.90;73.10
33865;DHT22;20159;51.072;13.526;2023-05-10T04:05:07;10.80;73.60
33865;DHT22;20159;51.072;13.526;2023-05-10T04:07:32;10.80;73.50
33865;DHT22;20159;51.072;13.526;2023-05-10T04:09:58;10.80;73.70
33865;DHT22;20159;51.072;13.526;2023-05-10T04:12:24;10.80;73.80
33865;DHT22;20159;51.072;13.526;2023-05-10T04:14:49;10.80;74.00
33865;DHT22;20159;51.072;13.526;2023-05-10T04:17:16;10.70;74.20
33865;DHT22;20159;51.072;13.526;2023-05-10T04:19:41;10.80;74.70
33865;DHT22;20159;51.072;13.526;2023-05-10T04:22:07;10.80;75.30
33865;DHT22;20159;51.072;13.526;2023-05-10T04:24:32;10.90;75.70
33865;DHT22;20159;51.072;13.526;2023-05-10T04:26:58;11.00;76.00
33865;DHT22;20159;51.072;13.526;2023-05-10T04:29:24;11.30;76.30
33865;DHT22;20159;51.072;13.526;2023-05-10T04:31:50;11.50;76.30
33865;DHT22;20159;51.072;13.526;2023-05-10T04:34:16;11.80;76.20
33865;DHT22;20159;51.072;13.526;2023-05-10T04:36:41;12.10;75.80
33865;DHT22;20159;51.072;13.526;2023-05-10T04:39:07;12.50;75.60
33865;DHT22;20159;51.072;13.526;2023-05-10T04:41:32;12.80;75.00
33865;DHT22;20159;51.072;13.526;2023-05-10T04:43:58;13.20;74.60
33865;DHT22;20159;51.072;13.526;2023-05-10T04:46:23;13.60;73.90
33865;DHT22;20159;51.072;13.526;2023-05-10T04:48:49;13.90;73.20
33865;DHT22;20159;51.072;13.526;2023-05-10T04:51:14;14.30;72.60
33865;DHT22;20159;51.072;13.526;2023-05-10T04:53:40;14.70;72.10
33865;DHT22;20159;51.072;13.526;2023-05-10T04:56:05;15.10;71.70
33865;DHT22;20159;51.072;13.526;2023-05-10T04:58:31;15.40;71.00
33865;DHT22;20159;51.072;13.526;2023-05-10T05:00:56;15.90;70.60
33865;DHT22;20159;51.072;13.526;2023-05-10T05:03:22;16.30;69.60
33865;DHT22;20159;51.072;13.526;2023-05-10T05:05:48;16.70;68.40
33865;DHT22;20159;51.072;13.526;2023-05-10T05:08:13;17.10;67.10
33865;DHT22;20159;51.072;13.526;2023-05-10T05:10:39;17.50;66.70
33865;DHT22;20159;51.072;13.526;2023-05-10T05:13:04;17.80;65.70
33865;DHT22;20159;51.072;13.526;2023-05-10T05:15:30;18.20;64.80
33865;DHT22;20159;51.072;13.526;2023-05-10T05:17:56;18.50;64.00
33865;DHT22;20159;51.072;13.526;2023-05-10T05:20:21;18.80;63.00
33865;DHT22;20159;51.072;13.526;2023-05-10T05:22:47;19.20;62.40
33865;DHT22;20159;51.072;13.526;2023-05-10T05:25:13;19.60;61.80
33865;DHT22;20159;51.072;13.526;2023-05-10T05:27:38;19.90;61.40
33865;DHT22;20159;51.072;13.526;2023-05-10T05:30:04;20.20;59.70
33865;DHT22;20159;51.072;13.526;2023-05-10T05:32:30;20.50;58.60
33865;DHT22;20159;51.072;13.526;2023-05-10T05:34:55;20.80;58.20
33865;DHT22;20159;51.072;13.526;2023-05-10T05:37:21;21.10;57.00
33865;DHT22;20159;51.072;13.526;2023-05-10T05:39:48;21.30;56.50
33865;DHT22;20159;51.072;13.526;2023-05-10T05:42:14;21.60;55.20
33865;DHT22;20159;51.072;13.526;2023-05-10T05:44:40;21.90;54.70
33865;DHT22;20159;51.072;13.526;2023-05-10T05:47:06;22.10;54.20
33865;DHT22;20159;51.072;13.526;2023-05-10T05:49:32;22.40;53.10
33865;DHT22;20159;51.072;13.526;2023-05-10T05:52:01;22.70;52.20
33865;DHT22;20159;51.072;13.526;2023-05-10T05:54:27;22.80;51.10
33865;DHT22;20159;51.072;13.526;2023-05-10T05:57:00;23.00;51.90
33865;DHT22;20159;51.072;13.526;2023-05-10T05:59:26;23.20;50.10
33865;DHT22;20159;51.072;13.526;2023-05-10T06:01:51;23.50;50.50
33865;DHT22;20159;51.072;13.526;2023-05-10T06:04:17;23.70;50.20
33865;DHT22;20159;51.072;13.526;2023-05-10T06:06:43;23.90;49.60
33865;DHT22;20159;51.072;13.526;2023-05-10T06:09:09;24.00;48.60
33865;DHT22;20159;51.072;13.526;2023-05-10T06:11:35;24.20;47.90
33865;DHT22;20159;51.072;13.526;2023-05-10T06:14:01;24.40;47.30
33865;DHT22;20159;51.072;13.526;2023-05-10T06:16:27;24.40;47.00
33865;DHT22;20159;51.072;13.526;2023-05-10T06:18:52;24.60;46.80
33865;DHT22;20159;51.072;13.526;2023-05-10T06:21:18;24.70;46.50
33865;DHT22;20159;51.072;13.526;2023-05-10T06:23:43;24.80;46.50
33865;DHT22;20159;51.072;13.526;2023-05-10T06:26:09;25.00;46.60
33865;DHT22;20159;51.072;13.526;2023-05-10T06:28:35;25.20;46.10
33865;DHT22;20159;51.072;13.526;2023-05-10T06:31:00;25.30;45.50
33865;DHT22;20159;51.072;13.526;2023-05-10T06:33:26;25.50;45.40
33865;DHT22;20159;51.072;13.526;2023-05-10T06:35:52;25.70;45.00
33865;DHT22;20159;51.072;13.526;2023-05-10T06:38:18;25.80;44.90
33865;DHT22;20159;51.072;13.526;2023-05-10T06:40:43;26.00;44.90
33865;DHT22;20159;51.072;13.526;2023-05-10T06:43:10;26.20;44.40
33865;DHT22;20159;51.072;13.526;2023-05-10T06:45:35;26.50;44.30
33865;DHT22;20159;51.072;13.526;2023-05-10T06:48:01;26.50;43.70
33865;DHT22;20159;51.072;13.526;2023-05-10T06:50:27;26.60;43.50
33865;DHT22;20159;51.072;13.526;2023-05-10T06:52:52;26.70;43.40
33865;DHT22;20159;51.072;13.526;2023-05-10T06:55:18;26.80;43.70
33865;DHT22;20159;51.072;13.526;2023-05-10T06:57:43;27.00;43.90
33865;DHT22;20159;51.072;13.526;2023-05-10T07:00:09;27.20;43.20
33865;DHT22;20159;51.072;13.526;2023-05-10T07:02:35;27.40;42.90
33865;DHT22;20159;51.072;13.526;2023-05-10T07:05:01;27.50;42.30
33865;DHT22;20159;51.072;13.526;2023-05-10T07:07:27;27.70;42.70
33865;DHT22;20159;51.072;13.526;2023-05-10T07:09:53;27.80;42.60
33865;DHT22;20159;51.072;13.526;2023-05-10T07:12:18;28.00;42.40
33865;DHT22;20159;51.072;13.526;2023-05-10T07:14:44;28.10;42.60
33865;DHT22;20159;51.072;13.526;2023-05-10T07:17:09;28.40;43.00
33865;DHT22;20159;51.072;13.526;2023-05-10T07:19:35;28.70;42.90
33865;DHT22;20159;51.072;13.526;2023-05-10T07:22:01;29.00;42.80
33865;DHT22;20159;51.072;13.526;2023-05-10T07:24:26;28.90;41.70
33865;DHT22;20159;51.072;13.526;2023-05-10T07:26:52;29.50;41.20
33865;DHT22;20159;51.072;13.526;2023-05-10T07:29:17;29.80;40.90
33865;DHT22;20159;51.072;13.526;2023-05-10T07:31:43;29.90;40.10
33865;DHT22;20159;51.072;13.526;2023-05-10T07:34:09;30.20;39.50
33865;DHT22;20159;51.072;13.526;2023-05-10T07:36:35;30.20;39.80
33865;DHT22;20159;51.072;13.526;2023-05-10T07:39:00;30.30;39.30
33865;DHT22;20159;51.072;13.526;2023-05-10T07:41:26;30.40;39.00
33865;DHT22;20159;51.072;13.526;2023-05-10T07:43:52;30.50;39.20
33865;DHT22;20159;51.072;13.526;2023-05-10T07:46:17;30.70;39.50
33865;DHT22;20159;51.072;13.526;2023-05-10T07:48:45;30.70;39.30
33865;DHT22;20159;51.072;13.526;2023-05-10T07:51:10;30.80;39.20
33865;DHT22;20159;51.072;13.526;2023-05-10T07:53:36;31.00;39.00
33865;DHT22;20159;51.072;13.526;2023-05-10T07:56:20;31.00;38.00
33865;DHT22;20159;51.072;13.526;2023-05-10T07:58:46;31.00;38.10
33865;DHT22;20159;51.072;13.526;2023-05-10T08:01:11;31.00;37.60
33865;DHT22;20159;51.072;13.526;2023-05-10T08:03:37;31.00;37.60
33865;DHT22;20159;51.072;13.526;2023-05-10T08:06:02;30.90;37.20
33865;DHT22;20159;51.072;13.526;2023-05-10T08:08:28;30.80;37.00
33865;DHT22;20159;51.072;13.526;2023-05-10T08:10:54;30.80;37.20
33865;DHT22;20159;51.072;13.526;2023-05-10T08:13:20;30.70;37.30
33865;DHT22;20159;51.072;13.526;2023-05-10T08:15:46;30.60;37.00
33865;DHT22;20159;51.072;13.526;2023-05-10T08:18:12;30.50;37.80
33865;DHT22;20159;51.072;13.526;2023-05-10T08:20:38;30.50;37.90
33865;DHT22;20159;51.072;13.526;2023-05-10T08:23:03;30.50;37.50
33865;DHT22;20159;51.072;13.526;2023-05-10T08:25:29;30.50;37.10
33865;DHT22;20159;51.072;13.526;2023-05-10T08:27:54;30.50;37.30
33865;DHT22;20159;51.072;13.526;2023-05-10T08:30:20;30.50;37.30
33865;DHT22;20159;51.072;13.526;2023-05-10T08:32:45;30.60;37.20
33865;DHT22;20159;51.072;13.526;2023-05-10T08:35:11;30.60;37.00
33865;DHT22;20159;51.072;13.526;2023-05-10T08:37:36;30.60;37.30
33865;DHT22;20159;51.072;13.526;2023-05-10T08:40:02;30.70;37.60
33865;DHT22;20159;51.072;13.526;2023-05-10T08:42:30;30.80;36.80
33865;DHT22;20159;51.072;13.526;2023-05-10T08:44:57;30.80;36.50
33865;DHT22;20159;51.072;13.526;2023-05-10T08:47:22;30.70;36.90
33865;DHT22;20159;51.072;13.526;2023-05-10T08:49:48;30.70;36.80
33865;DHT22;20159;51.072;13.526;2023-05-10T08:52:17;30.70;36.80
33865;DHT22;20159;51.072;13.526;2023-05-10T08:54:43;30.60;37.20
33865;DHT22;20159;51.072;13.526;2023-05-10T08:57:10;30.60;37.10
33865;DHT22;20159;51.072;13.526;2023-05-10T08:59:36;30.60;36.80
33865;DHT22;20159;51.072;13.526;2023-05-10T09:02:05;30.60;37.20
33865;DHT22;20159;51.072;13.526;2023-05-10T09:04:31;30.70;37.20
33865;DHT22;20159;51.072;13.526;2023-05-10T09:06:57;30.70;36.70
33865;DHT22;20159;51.072;13.526;2023-05-10T09:09:23;30.70;37.60
33865;DHT22;20159;51.072;13.526;2023-05-10T09:11:51;30.70;37.80
33865;DHT22;20159;51.072;13.526;2023-05-10T09:14:17;30.70;37.00
33865;DHT22;20159;51.072;13.526;2023-05-10T09:16:43;30.80;36.80
33865;DHT22;20159;51.072;13.526;2023-05-10T09:19:09;30.80;36.90
33865;DHT22;20159;51.072;13.526;2023-05-10T09:21:36;30.80;36.70
33865;DHT22;20159;51.072;13.526;2023-05-10T09:24:05;30.90;37.10
33865;DHT22;20159;51.072;13.526;2023-05-10T09:26:31;30.90;37.20
33865;DHT22;20159;51.072;13.526;2023-05-10T09:28:58;30.90;37.10
33865;DHT22;20159;51.072;13.526;2023-05-10T09:31:46;30.90;36.70
33865;DHT22;20159;51.072;13.526;2023-05-10T09:34:16;30.90;36.40
33865;DHT22;20159;51.072;13.526;2023-05-10T09:37:00;30.90;37.10
33865;DHT22;20159;51.072;13.526;2023-05-10T09:39:34;30.80;36.50
33865;DHT22;20159;51.072;13.526;2023-05-10T09:42:02;30.80;36.50
33865;DHT22;20159;51.072;13.526;2023-05-10T09:44:29;30.70;36.80
33865;DHT22;20159;51.072;13.526;2023-05-10T09:46:55;30.70;37.00
33865;DHT22;20159;51.072;13.526;2023-05-10T09:49:23;30.70;36.80
33865;DHT22;20159;51.072;13.526;2023-05-10T09:52:06;30.60;36.90
33865;DHT22;20159;51.072;13.526;2023-05-10T09:54:32;30.60;36.80
33865;DHT22;20159;51.072;13.526;2023-05-10T09:56:59;30.60;37.80
33865;DHT22;20159;51.072;13.526;2023-05-10T09:59:26;30.60;38.10
33865;DHT22;20159;51.072;13.526;2023-05-10T10:01:55;30.60;36.90
33865;DHT22;20159;51.072;13.526;2023-05-10T10:04:21;30.70;36.70
33865;DHT22;20159;51.072;13.526;2023-05-10T10:07:01;30.60;36.40
33865;DHT22;20159;51.072;13.526;2023-05-10T10:09:28;30.50;36.30
33865;DHT22;20159;51.072;13.526;2023-05-10T10:11:54;30.50;36.80
33865;DHT22;20159;51.072;13.526;2023-05-10T10:14:20;30.50;38.20
33865;DHT22;20159;51.072;13.526;2023-05-10T10:16:46;30.50;37.70
33865;DHT22;20159;51.072;13.526;2023-05-10T10:19:12;30.50;37.50
33865;DHT22;20159;51.072;13.526;2023-05-10T10:21:37;30.70;37.00
33865;DHT22;20159;51.072;13.526;2023-05-10T10:24:06;30.70;37.50
33865;DHT22;20159;51.072;13.526;2023-05-10T10:26:35;30.70;38.30
33865;DHT22;20159;51.072;13.526;2023-05-10T10:29:23;30.70;37.80
33865;DHT22;20159;51.072;13.526;2023-05-10T10:31:53;30.70;37.40
33865;DHT22;20159;51.072;13.526;2023-05-10T10:34:31;30.80;36.80
33865;DHT22;20159;51.072;13.526;2023-05-10T10:36:58;30.70;36.80
33865;DHT22;20159;51.072;13.526;2023-05-10T10:39:28;30.70;36.60
33865;DHT22;20159;51.072;13.526;2023-05-10T10:41:55;30.70;36.50
33865;DHT22;20159;51.072;13.526;2023-05-10T10:50:05;30.40;36.00
33865;DHT22;20159;51.072;13.526;2023-05-10T10:52:33;30.20;36.50
33865;DHT22;20159;51.072;13.526;2023-05-10T10:55:16;31.10;37.30
33865;DHT22;20159;51.072;13.526;2023-05-10T10:57:51;30.00;36.40
33865;DHT22;20159;51.072;13.526;2023-05-10T11:00:28;29.90;36.60
33865;DHT22;20159;51.072;13.526;2023-05-10T11:03:09;29.80;36.40
33865;DHT22;20159;51.072;13.526;2023-05-10T11:05:43;29.70;36.80
33865;DHT22;20159;51.072;13.526;2023-05-10T11:10:39;29.50;36.80
33865;DHT22;20159;51.072;13.526;2023-05-10T11:13:09;29.40;37.00
33865;DHT22;20159;51.072;13.526;2023-05-10T11:15:39;29.40;37.20
33865;DHT22;20159;51.072;13.526;2023-05-10T11:18:19;29.40;38.10
33865;DHT22;20159;51.072;13.526;2023-05-10T11:20:56;29.40;38.20
33865;DHT22;20159;51.072;13.526;2023-05-10T11:23:22;29.40;39.50
33865;DHT22;20159;51.072;13.526;2023-05-10T11:25:48;29.30;39.10
33865;DHT22;20159;51.072;13.526;2023-05-10T11:28:17;29.30;39.40
33865;DHT22;20159;51.072;13.526;2023-05-10T11:30:44;29.30;38.80
33865;DHT22;20159;51.072;13.526;2023-05-10T11:33:15;29.20;39.00
33865;DHT22;20159;51.072;13.526;2023-05-10T11:35:41;29.20;39.60
33865;DHT22;20159;51.072;13.526;2023-05-10T11:38:25;29.10;39.60
33865;DHT22;20159;51.072;13.526;2023-05-10T11:41:32;29.90;41.20
33865;DHT22;20159;51.072;13.526;2023-05-10T11:48:05;29.10;40.30
33865;DHT22;20159;51.072;13.526;2023-05-10T11:51:13;29.10;40.30
33865;DHT22;20159;51.072;13.526;2023-05-10T12:10:51;28.00;42.40
33865;DHT22;20159;51.072;13.526;2023-05-10T12:13:43;28.40;41.80
33865;DHT22;20159;51.072;13.526;2023-05-10T12:16:43;28.40;41.60
33865;DHT22;20159;51.072;13.526;2023-05-10T12:19:39;28.50;42.50
33865;DHT22;20159;51.072;13.526;2023-05-10T12:22:05;28.30;41.00
33865;DHT22;20159;51.072;13.526;2023-05-10T12:24:34;28.10;41.40
33865;DHT22;20159;51.072;13.526;2023-05-10T12:27:03;28.00;42.00
33865;DHT22;20159;51.072;13.526;2023-05-10T12:29:30;27.80;42.10
33865;DHT22;20159;51.072;13.526;2023-05-10T12:31:59;27.70;42.40
33865;DHT22;20159;51.072;13.526;2023-05-10T12:34:25;27.40;42.50
33865;DHT22;20159;51.072;13.526;2023-05-10T12:36:54;27.30;43.00
33865;DHT22;20159;51.072;13.526;2023-05-10T12:39:20;27.10;43.50
33865;DHT22;20159;51.072;13.526;2023-05-10T12:41:46;27.00;43.60
33865;DHT22;20159;51.072;13.526;2023-05-10T12:44:11;26.90;43.60
33865;DHT22;20159;51.072;13.526;2023-05-10T12:46:37;26.80;43.90
33865;DHT22;20159;51.072;13.526;2023-05-10T12:49:02;26.70;44.00
33865;DHT22;20159;51.072;13.526;2023-05-10T12:51:28;26.60;43.80
33865;DHT22;20159;51.072;13.526;2023-05-10T12:53:53;26.60;44.20
33865;DHT22;20159;51.072;13.526;2023-05-10T12:56:19;26.50;44.30
33865;DHT22;20159;51.072;13.526;2023-05-10T12:58:45;26.50;44.40
33865;DHT22;20159;51.072;13.526;2023-05-10T13:01:14;26.40;45.10
33865;DHT22;20159;51.072;13.526;2023-05-10T13:03:40;26.40;45.10
33865;DHT22;20159;51.072;13.526;2023-05-10T13:06:06;26.40;45.20
33865;DHT22;20159;51.072;13.526;2023-05-10T13:08:34;26.30;45.20
33865;DHT22;20159;51.072;13.526;2023-05-10T13:11:00;26.30;44.90
33865;DHT22;20159;51.072;13.526;2023-05-10T13:13:26;26.20;45.00
33865;DHT22;20159;51.072;13.526;2023-05-10T13:15:51;26.20;45.20
33865;DHT22;20159;51.072;13.526;2023-05-10T13:18:17;26.10;44.80
33865;DHT22;20159;51.072;13.526;2023-05-10T13:20:42;26.00;45.20
33865;DHT22;20159;51.072;13.526;2023-05-10T13:23:09;25.90;45.30
33865;DHT22;20159;51.072;13.526;2023-05-10T13:25:35;25.80;45.90
33865;DHT22;20159;51.072;13.526;2023-05-10T13:28:01;25.70;46.30
33865;DHT22;20159;51.072;13.526;2023-05-10T13:30:26;25.60;46.30
33865;DHT22;20159;51.072;13.526;2023-05-10T13:32:52;25.50;45.90
33865;DHT22;20159;51.072;13.526;2023-05-10T13:35:17;25.40;46.30
33865;DHT22;20159;51.072;13.526;2023-05-10T13:37:43;25.30;46.70
33865;DHT22;20159;51.072;13.526;2023-05-10T13:40:09;25.20;46.70
33865;DHT22;20159;51.072;13.526;2023-05-10T13:42:34;25.20;47.00
33865;DHT22;20159;51.072;13.526;2023-05-10T13:45:00;25.20;46.90
33865;DHT22;20159;51.072;13.526;2023-05-10T13:47:29;25.20;46.90
33865;DHT22;20159;51.072;13.526;2023-05-10T13:49:54;24.00;47.00
33865;DHT22;20159;51.072;13.526;2023-05-10T13:52:20;25.00;47.20
33865;DHT22;20159;51.072;13.526;2023-05-10T13:54:46;25.10;47.50
33865;DHT22;20159;51.072;13.526;2023-05-10T13:57:11;25.10;47.90
33865;DHT22;20159;51.072;13.526;2023-05-10T13:59:39;25.10;48.60
33865;DHT22;20159;51.072;13.526;2023-05-10T14:02:04;25.10;48.60
33865;DHT22;20159;51.072;13.526;2023-05-10T14:04:30;25.20;48.20
33865;DHT22;20159;51.072;13.526;2023-05-10T14:06:56;25.30;48.10
33865;DHT22;20159;51.072;13.526;2023-05-10T14:09:22;25.40;48.20
33865;DHT22;20159;51.072;13.526;2023-05-10T14:11:47;25.50;48.20
33865;DHT22;20159;51.072;13.526;2023-05-10T14:14:13;25.60;48.00
33865;DHT22;20159;51.072;13.526;2023-05-10T14:16:42;25.60;48.10
33865;DHT22;20159;51.072;13.526;2023-05-10T14:19:08;25.60;48.10
33865;DHT22;20159;51.072;13.526;2023-05-10T14:21:34;25.70;47.90
33865;DHT22;20159;51.072;13.526;2023-05-10T14:24:00;25.70;47.80
33865;DHT22;20159;51.072;13.526;2023-05-10T14:26:25;25.70;48.10
33865;DHT22;20159;51.072;13.526;2023-05-10T14:28:51;25.60;48.00
33865;DHT22;20159;51.072;13.526;2023-05-10T14:31:17;25.60;48.30
33865;DHT22;20159;51.072;13.526;2023-05-10T14:33:44;25.60;48.20
33865;DHT22;20159;51.072;13.526;2023-05-10T14:36:10;25.50;48.60
33865;DHT22;20159;51.072;13.526;2023-05-10T14:38:35;25.50;48.60
33865;DHT22;20159;51.072;13.526;2023-05-10T14:41:01;25.40;48.20
33865;DHT22;20159;51.072;13.526;2023-05-10T14:43:27;25.30;48.70
33865;DHT22;20159;51.072;13.526;2023-05-10T14:45:53;25.30;49.30
33865;DHT22;20159;51.072;13.526;2023-05-10T14:48:19;25.20;49.40
33865;DHT22;20159;51.072;13.526;2023-05-10T14:50:45;25.20;49.50
33865;DHT22;20159;51.072;13.526;2023-05-10T14:53:11;25.20;49.30
33865;DHT22;20159;51.072;13.526;2023-05-10T14:55:36;25.10;49.40
33865;DHT22;20159;51.072;13.526;2023-05-10T14:58:03;25.00;49.50
33865;DHT22;20159;51.072;13.526;2023-05-10T15:00:29;24.90;49.60
33865;DHT22;20159;51.072;13.526;2023-05-10T15:02:55;24.90;49.90
33865;DHT22;20159;51.072;13.526;2023-05-10T15:05:20;24.80;50.10
33865;DHT22;20159;51.072;13.526;2023-05-10T15:07:46;24.70;50.30
33865;DHT22;20159;51.072;13.526;2023-05-10T15:10:11;24.60;50.60
33865;DHT22;20159;51.072;13.526;2023-05-10T15:12:37;24.40;50.40
33865;DHT22;20159;51.072;13.526;2023-05-10T15:15:04;24.40;50.60
33865;DHT22;20159;51.072;13.526;2023-05-10T15:17:30;24.20;50.30
33865;DHT22;20159;51.072;13.526;2023-05-10T15:19:55;24.10;50.60
33865;DHT22;20159;51.072;13.526;2023-05-10T15:22:21;24.00;51.00
33865;DHT22;20159;51.072;13.526;2023-05-10T15:24:47;23.80;51.40
33865;DHT22;20159;51.072;13.526;2023-05-10T15:27:12;23.70;51.70
33865;DHT22;20159;51.072;13.526;2023-05-10T15:29:38;23.60;52.30
33865;DHT22;20159;51.072;13.526;2023-05-10T15:32:03;23.50;52.30
33865;DHT22;20159;51.072;13.526;2023-05-10T15:34:29;23.40;52.60
33865;DHT22;20159;51.072;13.526;2023-05-10T15:36:54;23.30;52.70
33865;DHT22;20159;51.072;13.526;2023-05-10T15:39:20;23.30;52.80
33865;DHT22;20159;51.072;13.526;2023-05-10T15:41:45;23.20;52.50
33865;DHT22;20159;51.072;13.526;2023-05-10T15:44:12;23.20;52.70
33865;DHT22;20159;51.072;13.526;2023-05-10T15:46:37;23.20;52.50
33865;DHT22;20159;51.072;13.526;2023-05-10T15:49:03;23.10;52.70
33865;DHT22;20159;51.072;13.526;2023-05-10T15:51:29;23.10;53.00
33865;DHT22;20159;51.072;13.526;2023-05-10T15:53:54;23.10;53.10
33865;DHT22;20159;51.072;13.526;2023-05-10T15:56:21;23.10;53.20
33865;DHT22;20159;51.072;13.526;2023-05-10T15:58:47;23.00;53.10
33865;DHT22;20159;51.072;13.526;2023-05-10T16:01:12;23.00;53.40